sensor_id;sensor_type;location;lat;lon;timestamp;temperature;humidity
63051;SHT30;49136;47.416;19.402;2023-05-25T00:01:35;15.50;99.99
63051;SHT30;49136;47.416;19.402;2023-05-25T00:04:00;15.45;99.99
63051;SHT30;49136;47.416;19.402;2023-05-25T00:06:31;15.42;99.99
63051;SHT30;49136;47.416;19.402;2023-05-25T00:08:56;15.36;99.99
63051;SHT30;49136;47.416;19.402;2023-05-25T00:11:23;15.32;99.99
63051;SHT30;49136;47.416;19.402;2023-05-25T00:13:50;15.30;99.99
63051;SHT30;49136;47.416;19.402;2023-05-25T00:16:15;15.24;99.99
63051;SHT30;49136;47.416;19.402;2023-05-25T00:18:41;15.27;99.99
63051;SHT30;49136;47.416;19.402;2023-05-25T00:21:07;15.18;99.99
63051;SHT30;49136;47.416;19.402;2023-05-25T00:23:33;15.17;99.99
63051;SHT30;49136;47.416;19.402;2023-05-25T00:26:01;15.18;99.99
63051;SHT30;49136;47.416;19.402;2023-05-25T00:28:26;15.15;99.99
63051;SHT30;49136;47.416;19.402;2023-05-25T00:30:52;15.14;99.99
63051;SHT30;49136;47.416;19.402;2023-05-25T00:33:17;15.14;99.99
63051;SHT30;49136;47.416;19.402;2023-05-25T00:35:42;15.11;99.99
63051;SHT30;49136;47.416;19.402;2023-05-25T00:38:16;15.10;99.99
63051;SHT30;49136;47.416;19.402;2023-05-25T00:40:43;15.06;99.99
63051;SHT30;49136;47.416;19.402;2023-05-25T00:43:09;15.06;99.99
63051;SHT30;49136;47.416;19.402;2023-05-25T00:45:35;15.03;99.99
63051;SHT30;49136;47.416;19.402;2023-05-25T00:48:00;15.03;99.99
63051;SHT30;49136;47.416;19.402;2023-05-25T00:50:38;15.03;99.99
63051;SHT30;49136;47.416;19.402;2023-05-25T00:53:09;15.00;99.99
63051;SHT30;49136;47.416;19.402;2023-05-25T00:55:50;15.00;99.99
63051;SHT30;49136;47.416;19.402;2023-05-25T00:58:20;15.06;99.99
63051;SHT30;49136;47.416;19.402;2023-05-25T01:00:46;15.04;99.99
63051;SHT30;49136;47.416;19.402;2023-05-25T01:03:14;15.01;99.99
63051;SHT30;49136;47.416;19.402;2023-05-25T01:05:47;15.04;99.99
63051;SHT30;49136;47.416;19.402;2023-05-25T01:08:15;15.03;99.99
63051;SHT30;49136;47.416;19.402;2023-05-25T01:10:42;15.07;99.99
63051;SHT30;49136;47.416;19.402;2023-05-25T01:13:09;15.07;99.99
63051;SHT30;49136;47.416;19.402;2023-05-25T01:15:37;15.08;99.99
63051;SHT30;49136;47.416;19.402;2023-05-25T01:18:03;15.10;99.99
63051;SHT30;49136;47.416;19.402;2023-05-25T01:20:29;15.12;99.99
63051;SHT30;49136;47.416;19.402;2023-05-25T01:23:04;15.12;99.99
63051;SHT30;49136;47.416;19.402;2023-05-25T01:25:52;15.11;99.99
63051;SHT30;49136;47.416;19.402;2023-05-25T01:28:29;15.11;99.99
63051;SHT30;49136;47.416;19.402;2023-05-25T01:30:55;15.08;99.99
63051;SHT30;49136;47.416;19.402;2023-05-25T01:33:21;15.08;99.99
63051;SHT30;49136;47.416;19.402;2023-05-25T01:35:48;15.03;99.99
63051;SHT30;49136;47.416;19.402;2023-05-25T01:38:15;15.03;99.99
63051;SHT30;49136;47.416;19.402;2023-05-25T01:40:43;14.97;99.99
63051;SHT30;49136;47.416;19.402;2023-05-25T01:43:08;14.89;99.99
63051;SHT30;49136;47.416;19.402;2023-05-25T01:45:34;14.77;99.99
63051;SHT30;49136;47.416;19.402;2023-05-25T01:48:24;14.64;99.99
63051;SHT30;49136;47.416;19.402;2023-05-25T01:51:01;14.64;99.99
63051;SHT30;49136;47.416;19.402;2023-05-25T01:53:32;14.58;99.99
63051;SHT30;49136;47.416;19.402;2023-05-25T01:56:01;14.54;99.99
63051;SHT30;49136;47.416;19.402;2023-05-25T01:58:33;14.48;99.99
63051;SHT30;49136;47.416;19.402;2023-05-25T02:00:59;14.45;99.99
63051;SHT30;49136;47.416;19.402;2023-05-25T02:03:25;14.35;99.99
63051;SHT30;49136;47.416;19.402;2023-05-25T02:05:51;14.31;99.99
63051;SHT30;49136;47.416;19.402;2023-05-25T02:08:17;14.31;99.99
63051;SHT30;49136;47.416;19.402;2023-05-25T02:10:45;14.27;99.99
63051;SHT30;49136;47.416;19.402;2023-05-25T02:13:10;14.21;99.99
63051;SHT30;49136;47.416;19.402;2023-05-25T02:15:36;14.21;99.99
63051;SHT30;49136;47.416;19.402;2023-05-25T02:18:01;14.20;99.99
63051;SHT30;49136;47.416;19.402;2023-05-25T02:20:27;14.20;99.99
63051;SHT30;49136;47.416;19.402;2023-05-25T02:22:52;14.20;99.99
63051;SHT30;49136;47.416;19.402;2023-05-25T02:25:18;14.21;99.99
63051;SHT30;49136;47.416;19.402;2023-05-25T02:27:43;14.24;99.99
63051;SHT30;49136;47.416;19.402;2023-05-25T02:30:09;14.27;99.99
63051;SHT30;49136;47.416;19.402;2023-05-25T02:32:34;14.32;99.99
63051;SHT30;49136;47.416;19.402;2023-05-25T02:35:00;14.32;99.99
63051;SHT30;49136;47.416;19.402;2023-05-25T02:37:26;14.31;99.99
63051;SHT30;49136;47.416;19.402;2023-05-25T02:39:51;14.28;99.99
63051;SHT30;49136;47.416;19.402;2023-05-25T02:42:17;14.32;99.99
63051;SHT30;49136;47.416;19.402;2023-05-25T02:44:44;14.34;99.99
63051;SHT30;49136;47.416;19.402;2023-05-25T02:47:16;14.39;99.99
63051;SHT30;49136;47.416;19.402;2023-05-25T02:49:43;14.38;99.99
63051;SHT30;49136;47.416;19.402;2023-05-25T02:52:09;14.35;99.99
63051;SHT30;49136;47.416;19.402;2023-05-25T02:54:35;14.37;99.99
63051;SHT30;49136;47.416;19.402;2023-05-25T02:57:01;14.35;99.99
63051;SHT30;49136;47.416;19.402;2023-05-25T02:59:27;14.37;99.99
63051;SHT30;49136;47.416;19.402;2023-05-25T03:01:53;14.34;99.99
63051;SHT30;49136;47.416;19.402;2023-05-25T03:04:18;14.34;99.99
63051;SHT30;49136;47.416;19.402;2023-05-25T03:06:44;14.31;99.99
63051;SHT30;49136;47.416;19.402;2023-05-25T03:09:10;14.31;99.99
63051;SHT30;49136;47.416;19.402;2023-05-25T03:11:35;14.31;99.99
63051;SHT30;49136;47.416;19.402;2023-05-25T03:14:01;14.30;99.99
63051;SHT30;49136;47.416;19.402;2023-05-25T03:16:26;14.35;99.99
63051;SHT30;49136;47.416;19.402;2023-05-25T03:18:52;14.31;99.99
63051;SHT30;49136;47.416;19.402;2023-05-25T03:21:17;14.35;99.99
63051;SHT30;49136;47.416;19.402;2023-05-25T03:23:42;14.39;99.99
63051;SHT30;49136;47.416;19.402;2023-05-25T03:26:08;14.51;99.99
63051;SHT30;49136;47.416;19.402;2023-05-25T03:28:33;14.66;99.99
63051;SHT30;49136;47.416;19.402;2023-05-25T03:30:59;14.79;99.99
63051;SHT30;49136;47.416;19.402;2023-05-25T03:33:25;14.90;99.99
63051;SHT30;49136;47.416;19.402;2023-05-25T03:35:50;14.90;99.99
63051;SHT30;49136;47.416;19.402;2023-05-25T03:38:16;14.96;99.99
63051;SHT30;49136;47.416;19.402;2023-05-25T03:40:41;15.06;99.99
63051;SHT30;49136;47.416;19.402;2023-05-25T03:43:07;15.28;99.99
63051;SHT30;49136;47.416;19.402;2023-05-25T03:45:32;15.50;99.99
63051;SHT30;49136;47.416;19.402;2023-05-25T03:47:58;15.70;99.99
63051;SHT30;49136;47.416;19.402;2023-05-25T03:50:23;15.89;99.99
63051;SHT30;49136;47.416;19.402;2023-05-25T03:52:48;16.01;99.99
63051;SHT30;49136;47.416;19.402;2023-05-25T03:55:14;16.11;99.99
63051;SHT30;49136;47.416;19.402;2023-05-25T03:57:40;16.19;99.99
63051;SHT30;49136;47.416;19.402;2023-05-25T04:00:06;16.26;99.99
63051;SHT30;49136;47.416;19.402;2023-05-25T04:02:33;16.36;99.99
63051;SHT30;49136;47.416;19.402;2023-05-25T04:04:59;16.48;99.99
63051;SHT30;49136;47.416;19.402;2023-05-25T04:07:24;16.57;99.99
63051;SHT30;49136;47.416;19.402;2023-05-25T04:09:52;16.43;99.80
63051;SHT30;49136;47.416;19.402;2023-05-25T04:12:17;16.59;99.76
63051;SHT30;49136;47.416;19.402;2023-05-25T04:14:42;16.81;99.63
63051;SHT30;49136;47.416;19.402;2023-05-25T04:17:08;16.91;99.91
63051;SHT30;49136;47.416;19.402;2023-05-25T04:19:34;16.69;99.69
63051;SHT30;49136;47.416;19.402;2023-05-25T04:21:59;16.95;99.91
63051;SHT30;49136;47.416;19.402;2023-05-25T04:24:25;17.10;99.38
63051;SHT30;49136;47.416;19.402;2023-05-25T04:26:50;17.11;98.65
63051;SHT30;49136;47.416;19.402;2023-05-25T04:29:16;17.69;98.15
63051;SHT30;49136;47.416;19.402;2023-05-25T04:31:41;17.92;95.93
63051;SHT30;49136;47.416;19.402;2023-05-25T04:34:08;18.34;95.21
63051;SHT30;49136;47.416;19.402;2023-05-25T04:36:34;18.69;93.69
63051;SHT30;49136;47.416;19.402;2023-05-25T04:39:03;18.92;92.28
63051;SHT30;49136;47.416;19.402;2023-05-25T04:41:29;19.09;91.29
63051;SHT30;49136;47.416;19.402;2023-05-25T04:43:54;19.02;90.98
63051;SHT30;49136;47.416;19.402;2023-05-25T04:46:20;19.06;90.36
63051;SHT30;49136;47.416;19.402;2023-05-25T04:48:45;19.10;89.64
63051;SHT30;49136;47.416;19.402;2023-05-25T04:51:11;19.44;90.53
63051;SHT30;49136;47.416;19.402;2023-05-25T04:53:37;19.69;91.59
63051;SHT30;49136;47.416;19.402;2023-05-25T04:56:03;19.58;90.04
63051;SHT30;49136;47.416;19.402;2023-05-25T04:58:28;19.94;91.96
63051;SHT30;49136;47.416;19.402;2023-05-25T05:00:57;20.13;90.76
63051;SHT30;49136;47.416;19.402;2023-05-25T05:03:22;20.27;90.11
63051;SHT30;49136;47.416;19.402;2023-05-25T05:05:48;20.31;90.05
63051;SHT30;49136;47.416;19.402;2023-05-25T05:08:13;20.45;89.78
63051;SHT30;49136;47.416;19.402;2023-05-25T05:10:39;20.52;89.38
63051;SHT30;49136;47.416;19.402;2023-05-25T05:13:04;20.75;88.69
63051;SHT30;49136;47.416;19.402;2023-05-25T05:15:30;20.93;88.24
63051;SHT30;49136;47.416;19.402;2023-05-25T05:17:56;20.99;86.72
63051;SHT30;49136;47.416;19.402;2023-05-25T05:20:21;21.37;86.39
63051;SHT30;49136;47.416;19.402;2023-05-25T05:22:47;21.65;86.81
63051;SHT30;49136;47.416;19.402;2023-05-25T05:25:12;21.23;83.47
63051;SHT30;49136;47.416;19.402;2023-05-25T05:27:38;20.96;82.08
63051;SHT30;49136;47.416;19.402;2023-05-25T05:30:04;20.10;84.32
63051;SHT30;49136;47.416;19.402;2023-05-25T05:32:30;21.10;86.73
63051;SHT30;49136;47.416;19.402;2023-05-25T05:34:55;21.46;84.26
63051;SHT30;49136;47.416;19.402;2023-05-25T05:37:21;21.34;82.29
63051;SHT30;49136;47.416;19.402;2023-05-25T05:39:46;21.92;83.91
63051;SHT30;49136;47.416;19.402;2023-05-25T05:42:12;21.45;81.94
63051;SHT30;49136;47.416;19.402;2023-05-25T05:44:37;21.46;82.57
63051;SHT30;49136;47.416;19.402;2023-05-25T05:47:02;20.61;82.13
63051;SHT30;49136;47.416;19.402;2023-05-25T05:49:29;20.86;83.21
63051;SHT30;49136;47.416;19.402;2023-05-25T05:51:55;21.18;83.89
63051;SHT30;49136;47.416;19.402;2023-05-25T05:54:21;20.99;83.42
63051;SHT30;49136;47.416;19.402;2023-05-25T05:56:46;21.69;82.30
63051;SHT30;49136;47.416;19.402;2023-05-25T05:59:11;22.25;82.62
63051;SHT30;49136;47.416;19.402;2023-05-25T06:01:37;22.56;81.96
63051;SHT30;49136;47.416;19.402;2023-05-25T06:04:05;21.62;79.31
63051;SHT30;49136;47.416;19.402;2023-05-25T06:06:31;21.96;82.79
63051;SHT30;49136;47.416;19.402;2023-05-25T06:09:02;22.17;80.90
63051;SHT30;49136;47.416;19.402;2023-05-25T06:11:29;21.55;77.64
63051;SHT30;49136;47.416;19.402;2023-05-25T06:13:55;21.85;80.03
63051;SHT30;49136;47.416;19.402;2023-05-25T06:16:20;22.67;79.86
63051;SHT30;49136;47.416;19.402;2023-05-25T06:18:46;22.91;75.52
63051;SHT30;49136;47.416;19.402;2023-05-25T06:21:11;22.52;77.81
63051;SHT30;49136;47.416;19.402;2023-05-25T06:23:37;22.98;77.11
63051;SHT30;49136;47.416;19.402;2023-05-25T06:26:05;23.45;73.17
63051;SHT30;49136;47.416;19.402;2023-05-25T06:28:31;23.67;73.71
63051;SHT30;49136;47.416;19.402;2023-05-25T06:30:56;22.69;73.23
63051;SHT30;49136;47.416;19.402;2023-05-25T06:33:22;21.98;75.31
63051;SHT30;49136;47.416;19.402;2023-05-25T06:35:48;21.69;76.99
63051;SHT30;49136;47.416;19.402;2023-05-25T06:38:14;21.39;78.99
63051;SHT30;49136;47.416;19.402;2023-05-25T06:40:39;21.58;78.88
63051;SHT30;49136;47.416;19.402;2023-05-25T06:43:05;21.15;79.03
63051;SHT30;49136;47.416;19.402;2023-05-25T06:45:30;21.66;78.92
63051;SHT30;49136;47.416;19.402;2023-05-25T06:47:56;21.63;80.77
63051;SHT30;49136;47.416;19.402;2023-05-25T06:50:21;21.55;80.03
63051;SHT30;49136;47.416;19.402;2023-05-25T06:52:47;21.44;78.57
63051;SHT30;49136;47.416;19.402;2023-05-25T06:55:12;21.41;79.29
63051;SHT30;49136;47.416;19.402;2023-05-25T06:57:38;21.30;79.65
63051;SHT30;49136;47.416;19.402;2023-05-25T07:00:04;21.49;80.15
63051;SHT30;49136;47.416;19.402;2023-05-25T07:02:33;21.35;79.15
63051;SHT30;49136;47.416;19.402;2023-05-25T07:04:58;21.31;80.04
63051;SHT30;49136;47.416;19.402;2023-05-25T07:07:25;21.01;79.39
63051;SHT30;49136;47.416;19.402;2023-05-25T07:09:50;20.86;78.98
63051;SHT30;49136;47.416;19.402;2023-05-25T07:12:15;21.46;78.83
63051;SHT30;49136;47.416;19.402;2023-05-25T07:14:41;21.82;77.83
63051;SHT30;49136;47.416;19.402;2023-05-25T07:17:06;22.03;77.38
63051;SHT30;49136;47.416;19.402;2023-05-25T07:19:32;22.34;77.87
63051;SHT30;49136;47.416;19.402;2023-05-25T07:21:57;23.32;76.86
63051;SHT30;49136;47.416;19.402;2023-05-25T07:24:23;22.98;75.02
63051;SHT30;49136;47.416;19.402;2023-05-25T07:26:48;23.26;74.44
63051;SHT30;49136;47.416;19.402;2023-05-25T07:29:14;22.97;73.14
63051;SHT30;49136;47.416;19.402;2023-05-25T07:31:39;23.75;74.16
63051;SHT30;49136;47.416;19.402;2023-05-25T07:34:05;24.18;72.59
63051;SHT30;49136;47.416;19.402;2023-05-25T07:36:30;23.96;72.27
63051;SHT30;49136;47.416;19.402;2023-05-25T07:38:58;23.12;73.36
63051;SHT30;49136;47.416;19.402;2023-05-25T07:41:23;23.52;74.70
63051;SHT30;49136;47.416;19.402;2023-05-25T07:43:51;23.46;74.26
63051;SHT30;49136;47.416;19.402;2023-05-25T07:46:17;23.52;73.36
63051;SHT30;49136;47.416;19.402;2023-05-25T07:48:46;23.16;76.34
63051;SHT30;49136;47.416;19.402;2023-05-25T07:51:11;22.71;75.50
63051;SHT30;49136;47.416;19.402;2023-05-25T07:53:37;22.81;77.87
63051;SHT30;49136;47.416;19.402;2023-05-25T07:56:02;23.26;76.29
63051;SHT30;49136;47.416;19.402;2023-05-25T07:58:29;23.77;75.67
63051;SHT30;49136;47.416;19.402;2023-05-25T08:00:54;24.02;75.47
63051;SHT30;49136;47.416;19.402;2023-05-25T08:03:20;24.26;74.27
63051;SHT30;49136;47.416;19.402;2023-05-25T08:05:45;24.05;72.48
63051;SHT30;49136;47.416;19.402;2023-05-25T08:08:11;24.43;72.25
63051;SHT30;49136;47.416;19.402;2023-05-25T08:10:38;24.02;70.91
63051;SHT30;49136;47.416;19.402;2023-05-25T08:13:03;24.08;72.33
63051;SHT30;49136;47.416;19.402;2023-05-25T08:15:29;24.43;71.67
63051;SHT30;49136;47.416;19.402;2023-05-25T08:17:54;24.39;68.73
63051;SHT30;49136;47.416;19.402;2023-05-25T08:20:20;24.11;66.94
63051;SHT30;49136;47.416;19.402;2023-05-25T08:22:48;24.14;68.35
63051;SHT30;49136;47.416;19.402;2023-05-25T08:25:20;23.66;67.48
63051;SHT30;49136;47.416;19.402;2023-05-25T08:27:46;24.11;67.96
63051;SHT30;49136;47.416;19.402;2023-05-25T08:30:11;24.35;67.77
63051;SHT30;49136;47.416;19.402;2023-05-25T08:32:37;24.16;67.33
63051;SHT30;49136;47.416;19.402;2023-05-25T08:35:02;24.14;67.91
63051;SHT30;49136;47.416;19.402;2023-05-25T08:37:30;24.33;67.88
63051;SHT30;49136;47.416;19.402;2023-05-25T08:39:56;23.67;66.69
63051;SHT30;49136;47.416;19.402;2023-05-25T08:42:21;24.21;66.88
63051;SHT30;49136;47.416;19.402;2023-05-25T08:44:48;24.70;67.11
63051;SHT30;49136;47.416;19.402;2023-05-25T08:47:15;24.63;67.49
63051;SHT30;49136;47.416;19.402;2023-05-25T08:49:43;24.53;66.82
63051;SHT30;49136;47.416;19.402;2023-05-25T08:52:12;25.12;64.72
63051;SHT30;49136;47.416;19.402;2023-05-25T08:54:38;24.92;66.04
63051;SHT30;49136;47.416;19.402;2023-05-25T08:57:22;25.41;64.01
63051;SHT30;49136;47.416;19.402;2023-05-25T08:59:53;25.71;64.25
63051;SHT30;49136;47.416;19.402;2023-05-25T09:02:32;25.04;65.23
63051;SHT30;49136;47.416;19.402;2023-05-25T09:04:59;24.25;65.51
63051;SHT30;49136;47.416;19.402;2023-05-25T09:07:27;24.04;68.00
63051;SHT30;49136;47.416;19.402;2023-05-25T09:09:52;24.16;66.64
63051;SHT30;49136;47.416;19.402;2023-05-25T09:12:19;24.36;65.39
63051;SHT30;49136;47.416;19.402;2023-05-25T09:14:46;25.47;65.40
63051;SHT30;49136;47.416;19.402;2023-05-25T09:17:14;25.02;63.55
63051;SHT30;49136;47.416;19.402;2023-05-25T09:19:41;24.37;65.34
63051;SHT30;49136;47.416;19.402;2023-05-25T09:22:07;23.88;66.36
63051;SHT30;49136;47.416;19.402;2023-05-25T09:24:34;24.56;67.31
63051;SHT30;49136;47.416;19.402;2023-05-25T09:27:01;25.22;65.28
63051;SHT30;49136;47.416;19.402;2023-05-25T09:29:28;25.37;63.13
63051;SHT30;49136;47.416;19.402;2023-05-25T09:31:56;25.57;63.36
63051;SHT30;49136;47.416;19.402;2023-05-25T09:34:29;25.56;63.64
63051;SHT30;49136;47.416;19.402;2023-05-25T09:36:58;25.96;64.29
63051;SHT30;49136;47.416;19.402;2023-05-25T09:39:25;25.66;62.50
63051;SHT30;49136;47.416;19.402;2023-05-25T09:41:51;25.75;62.61
63051;SHT30;49136;47.416;19.402;2023-05-25T09:44:17;25.66;62.53
63051;SHT30;49136;47.416;19.402;2023-05-25T09:46:43;26.02;61.12
63051;SHT30;49136;47.416;19.402;2023-05-25T09:49:09;26.02;61.77
63051;SHT30;49136;47.416;19.402;2023-05-25T09:51:35;26.08;62.32
63051;SHT30;49136;47.416;19.402;2023-05-25T09:54:06;25.91;61.92
63051;SHT30;49136;47.416;19.402;2023-05-25T09:56:33;25.84;62.26
63051;SHT30;49136;47.416;19.402;2023-05-25T09:58:58;25.41;63.22
63051;SHT30;49136;47.416;19.402;2023-05-25T10:01:26;25.84;62.18
63051;SHT30;49136;47.416;19.402;2023-05-25T10:03:54;25.61;61.03
63051;SHT30;49136;47.416;19.402;2023-05-25T10:06:24;25.74;61.35
63051;SHT30;49136;47.416;19.402;2023-05-25T10:08:50;25.84;62.83
63051;SHT30;49136;47.416;19.402;2023-05-25T10:11:18;26.34;62.57
63051;SHT30;49136;47.416;19.402;2023-05-25T10:13:45;25.47;60.65
63051;SHT30;49136;47.416;19.402;2023-05-25T10:16:15;25.80;62.72
63051;SHT30;49136;47.416;19.402;2023-05-25T10:19:23;25.50;61.95
63051;SHT30;49136;47.416;19.402;2023-05-25T10:21:41;25.74;63.07
63051;SHT30;49136;47.416;19.402;2023-05-25T10:24:29;26.34;61.64
63051;SHT30;49136;47.416;19.402;2023-05-25T10:26:58;26.32;63.68
63051;SHT30;49136;47.416;19.402;2023-05-25T10:29:27;26.50;60.02
63051;SHT30;49136;47.416;19.402;2023-05-25T10:31:54;26.82;59.68
63051;SHT30;49136;47.416;19.402;2023-05-25T10:34:21;25.41;59.84
63051;SHT30;49136;47.416;19.402;2023-05-25T10:36:46;26.48;60.56
63051;SHT30;49136;47.416;19.402;2023-05-25T10:39:13;26.92;60.44
63051;SHT30;49136;47.416;19.402;2023-05-25T10:41:40;25.82;62.19
63051;SHT30;49136;47.416;19.402;2023-05-25T10:44:06;25.36;62.67
63051;SHT30;49136;47.416;19.402;2023-05-25T10:46:32;25.41;62.63
63051;SHT30;49136;47.416;19.402;2023-05-25T10:48:58;25.44;61.20
63051;SHT30;49136;47.416;19.402;2023-05-25T10:51:39;25.91;62.12
63051;SHT30;49136;47.416;19.402;2023-05-25T10:54:05;26.52;63.64
63051;SHT30;49136;47.416;19.402;2023-05-25T10:56:30;26.48;63.10
63051;SHT30;49136;47.416;19.402;2023-05-25T10:58:56;26.50;62.36
63051;SHT30;49136;47.416;19.402;2023-05-25T11:01:22;26.29;61.23
63051;SHT30;49136;47.416;19.402;2023-05-25T11:03:56;25.85;62.98
63051;SHT30;49136;47.416;19.402;2023-05-25T11:09:04;25.95;63.15
63051;SHT30;49136;47.416;19.402;2023-05-25T11:17:09;26.84;61.56
63051;SHT30;49136;47.416;19.402;2023-05-25T11:22:17;26.69;62.61
63051;SHT30;49136;47.416;19.402;2023-05-25T11:24:45;26.57;63.08
63051;SHT30;49136;47.416;19.402;2023-05-25T11:27:11;26.69;60.17
63051;SHT30;49136;47.416;19.402;2023-05-25T11:29:37;26.37;61.38
63051;SHT30;49136;47.416;19.402;2023-05-25T11:32:04;26.10;61.20
63051;SHT30;49136;47.416;19.402;2023-05-25T11:34:35;25.99;61.92
63051;SHT30;49136;47.416;19.402;2023-05-25T11:37:01;26.32;61.09
63051;SHT30;49136;47.416;19.402;2023-05-25T11:39:27;26.51;60.65
63051;SHT30;49136;47.416;19.402;2023-05-25T11:42:00;26.62;60.19
63051;SHT30;49136;47.416;19.402;2023-05-25T11:44:31;26.29;60.40
63051;SHT30;49136;47.416;19.402;2023-05-25T11:47:01;26.30;60.98
63051;SHT30;49136;47.416;19.402;2023-05-25T11:49:29;26.12;61.39
63051;SHT30;49136;47.416;19.402;2023-05-25T11:51:56;25.91;61.69
63051;SHT30;49136;47.416;19.402;2023-05-25T11:54:23;25.78;61.98
63051;SHT30;49136;47.416;19.402;2023-05-25T11:56:49;25.57;61.80
63051;SHT30;49136;47.416;19.402;2023-05-25T11:59:15;26.25;61.52
63051;SHT30;49136;47.416;19.402;2023-05-25T12:01:41;25.88;60.75
63051;SHT30;49136;47.416;19.402;2023-05-25T12:04:07;25.47;62.01
63051;SHT30;49136;47.416;19.402;2023-05-25T12:06:33;25.43;62.79
63051;SHT30;49136;47.416;19.402;2023-05-25T12:09:02;25.33;62.78
63051;SHT30;49136;47.416;19.402;2023-05-25T12:11:33;25.04;62.46
63051;SHT30;49136;47.416;19.402;2023-05-25T12:14:00;25.19;62.38
63051;SHT30;49136;47.416;19.402;2023-05-25T12:16:28;25.14;62.05
63051;SHT30;49136;47.416;19.402;2023-05-25T12:18:54;25.47;61.38
63051;SHT30;49136;47.416;19.402;2023-05-25T12:21:20;25.60;62.39
63051;SHT30;49136;47.416;19.402;2023-05-25T12:23:47;25.34;61.79
63051;SHT30;49136;47.416;19.402;2023-05-25T12:26:13;25.30;62.58
63051;SHT30;49136;47.416;19.402;2023-05-25T12:31:26;25.58;63.08
63051;SHT30;49136;47.416;19.402;2023-05-25T12:34:06;25.61;62.26
63051;SHT30;49136;47.416;19.402;2023-05-25T12:36:40;26.01;62.30
63051;SHT30;49136;47.416;19.402;2023-05-25T12:39:06;25.56;63.05
63051;SHT30;49136;47.416;19.402;2023-05-25T12:41:51;25.64;62.06
63051;SHT30;49136;47.416;19.402;2023-05-25T12:44:33;25.12;62.80
63051;SHT30;49136;47.416;19.402;2023-05-25T12:47:18;25.18;63.87
63051;SHT30;49136;47.416;19.402;2023-05-25T12:49:52;25.22;63.89
63051;SHT30;49136;47.416;19.402;2023-05-25T12:52:37;25.15;62.08
63051;SHT30;49136;47.416;19.402;2023-05-25T12:55:25;25.32;62.20
63051;SHT30;49136;47.416;19.402;2023-05-25T13:00:22;24.88;61.99
63051;SHT30;49136;47.416;19.402;2023-05-25T13:02:49;24.95;63.49
63051;SHT30;49136;47.416;19.402;2023-05-25T13:05:25;24.82;63.19
63051;SHT30;49136;47.416;19.402;2023-05-25T13:07:52;24.95;63.29
63051;SHT30;49136;47.416;19.402;2023-05-25T13:10:18;24.85;62.76
63051;SHT30;49136;47.416;19.402;2023-05-25T13:12:47;25.20;62.37
63051;SHT30;49136;47.416;19.402;2023-05-25T13:15:16;25.93;61.67
63051;SHT30;49136;47.416;19.402;2023-05-25T13:17:43;25.81;62.33
63051;SHT30;49136;47.416;19.402;2023-05-25T13:20:13;25.70;65.20
63051;SHT30;49136;47.416;19.402;2023-05-25T13:22:39;25.50;61.84
63051;SHT30;49136;47.416;19.402;2023-05-25T13:25:06;25.41;62.63
63051;SHT30;49136;47.416;19.402;2023-05-25T13:27:33;25.23;62.78
63051;SHT30;49136;47.416;19.402;2023-05-25T13:30:00;25.26;63.58
63051;SHT30;49136;47.416;19.402;2023-05-25T13:32:26;25.26;62.72
63051;SHT30;49136;47.416;19.402;2023-05-25T13:34:51;25.15;63.49
63051;SHT30;49136;47.416;19.402;2023-05-25T13:37:18;25.04;64.16
63051;SHT30;49136;47.416;19.402;2023-05-25T13:39:43;25.26;63.19
63051;SHT30;49136;47.416;19.402;2023-05-25T13:42:09;25.11;62.51
63051;SHT30;49136;47.416;19.402;2023-05-25T13:44:34;25.81;62.65
63051;SHT30;49136;47.416;19.402;2023-05-25T13:47:00;26.23;62.04
63051;SHT30;49136;47.416;19.402;2023-05-25T13:49:25;26.61;60.33
63051;SHT30;49136;47.416;19.402;2023-05-25T13:51:52;26.67;60.27
63051;SHT30;49136;47.416;19.402;2023-05-25T13:54:18;26.44;59.79
63051;SHT30;49136;47.416;19.402;2023-05-25T13:56:44;26.72;59.70
63051;SHT30;49136;47.416;19.402;2023-05-25T13:59:09;26.92;58.65
63051;SHT30;49136;47.416;19.402;2023-05-25T14:01:35;27.31;60.62
63051;SHT30;49136;47.416;19.402;2023-05-25T14:04:00;27.37;60.27
63051;SHT30;49136;47.416;19.402;2023-05-25T14:06:26;27.31;60.14
63051;SHT30;49136;47.416;19.402;2023-05-25T14:08:52;27.20;59.52
63051;SHT30;49136;47.416;19.402;2023-05-25T14:11:18;26.88;59.03
63051;SHT30;49136;47.416;19.402;2023-05-25T14:13:43;27.06;62.02
63051;SHT30;49136;47.416;19.402;2023-05-25T14:16:09;26.81;60.50
63051;SHT30;49136;47.416;19.402;2023-05-25T14:18:34;26.86;59.25
63051;SHT30;49136;47.416;19.402;2023-05-25T14:21:00;27.22;60.52
63051;SHT30;49136;47.416;19.402;2023-05-25T14:23:25;26.89;59.90
63051;SHT30;49136;47.416;19.402;2023-05-25T14:25:51;27.00;59.88
63051;SHT30;49136;47.416;19.402;2023-05-25T14:28:16;26.74;58.31
63051;SHT30;49136;47.416;19.402;2023-05-25T14:30:42;26.69;58.46
63051;SHT30;49136;47.416;19.402;2023-05-25T14:33:07;27.29;62.93
63051;SHT30;49136;47.416;19.402;2023-05-25T14:35:38;27.50;58.42
63051;SHT30;49136;47.416;19.402;2023-05-25T14:38:04;27.88;59.13
63051;SHT30;49136;47.416;19.402;2023-05-25T14:40:29;27.68;57.58
63051;SHT30;49136;47.416;19.402;2023-05-25T14:42:55;28.00;59.52
63051;SHT30;49136;47.416;19.402;2023-05-25T14:45:20;27.84;57.05
63051;SHT30;49136;47.416;19.402;2023-05-25T14:47:46;28.02;57.27
63051;SHT30;49136;47.416;19.402;2023-05-25T14:50:11;27.76;58.62
63051;SHT30;49136;47.416;19.402;2023-05-25T14:52:40;27.62;60.27
63051;SHT30;49136;47.416;19.402;2023-05-25T14:55:06;27.23;57.95
63051;SHT30;49136;47.416;19.402;2023-05-25T14:57:33;27.69;59.57
63051;SHT30;49136;47.416;19.402;2023-05-25T14:59:58;28.07;58.62
63051;SHT30;49136;47.416;19.402;2023-05-25T15:02:24;28.20;59.54
63051;SHT30;49136;47.416;19.402;2023-05-25T15:04:49;28.27;58.14
63051;SHT30;49136;47.416;19.402;2023-05-25T15:07:14;27.62;57.32
63051;SHT30;49136;47.416;19.402;2023-05-25T15:09:40;27.52;58.68
63051;SHT30;49136;47.416;19.402;2023-05-25T15:12:06;26.84;59.63
63051;SHT30;49136;47.416;19.402;2023-05-25T15:14:32;27.34;61.47
63051;SHT30;49136;47.416;19.402;2023-05-25T15:16:58;27.54;59.32
63051;SHT30;49136;47.416;19.402;2023-05-25T15:19:24;27.84;59.27
63051;SHT30;49136;47.416;19.402;2023-05-25T15:21:49;27.97;60.04
63051;SHT30;49136;47.416;19.402;2023-05-25T15:24:14;27.99;58.25
63051;SHT30;49136;47.416;19.402;2023-05-25T15:26:41;27.76;59.69
63051;SHT30;49136;47.416;19.402;2023-05-25T15:29:07;27.54;58.12
63051;SHT30;49136;47.416;19.402;2023-05-25T15:31:33;27.40;59.44